Ironsides, MD

3:24 PM EST on January 25, 2015 (GMT -0500)
Quantico Marine Corps Air Facility | Change Station
CLOSE
Current Station
Airport
Location: Quantico,
Elevation: 10 ft
Nearby Weather Stations
Active Advisory: Special Statement

Elev 10 ft 38.50 °N, 77.31 °W | Updated 28 minutes ago

Partly Cloudy
Partly Cloudy
45 °F
Feels Like 43 °F
N
5
Wind Variable Wind from SW

Today
High -- | Low -- °F
--% Chance of Precip.
Yesterday
High -- | Low -- °F
Precip. -- in
7:19 AM 5:22 PM
Waxing Crescent, 35% visible
Pressure 29.85 in
Visibility -9999.0 miles
Clouds Mostly Cloudy 12000 ft
Windchill 43 °F
Dew Point 32 °F
Humidity 60%
Rainfall 0.00 in
Snow Depth Not available.
UV 1 out of 12
Pollen 1.30 out of 12
Air Quality Not available.
Flu Activity Not available.
METAR KNYG 251956Z AUTO 23004KT BKN120 07/00 A2984 RMK AO2 SLP106 T00720000 $

More Conditions Fewer Conditions

Pressure 29.85 in
Visibility -9999.0 miles
Clouds Mostly Cloudy 12000 ft
Windchill 43 °F
Dew Point 32 °F
Humidity 60%
Rainfall 0.00 in
Snow Depth Not available.
UV 1 out of 12
Pollen 1.30 out of 12
Air Quality Not available.
Flu Activity Not available.
METAR KNYG 251956Z AUTO 23004KT BKN120 07/00 A2984 RMK AO2 SLP106 T00720000 $

More Conditions Fewer Conditions

10-Day Weather Forecast

Almanac

Astronomy

Jan. 25, 2015 Rise Set
Actual Time
Civil Twilight
Nautical Twilight
Astronomical Twilight
Moon
Length of Visible Light
Length of Day
Tomorrow will be .
, % of the Moon is Illuminated

Today's Extremes

State Highs State Lows

Community

WunderPhotos

Upload Photos

1,790,038 photos uploaded!

WunderBlogs® & News

Nearby

Air Quality

  Air Quality AQ Index Pollutant
Not available.

Snow Depth

Station Depth Elevation

Earthquake Activity

City Distance Mag. Time & Date
Minimum magnitude displayed is 2.5.

Coastal Water Temperatures

Place Temperature

Nearby Weather Stations